createdAt,value
2022-10-09T00:01:05.699Z,12.43
2022-10-09T00:02:07.688Z,11.15
2022-10-09T00:03:10.351Z,12.75
2022-10-09T00:04:11.964Z,9.50
2022-10-09T00:05:14.866Z,14.00
2022-10-09T00:06:19.329Z,16.88
2022-10-09T00:07:21.028Z,13.27
2022-10-09T00:08:23.566Z,9.75
2022-10-09T00:09:26.267Z,9.15
2022-10-09T00:10:28.963Z,13.00
2022-10-09T00:11:33.879Z,11.27
2022-10-09T00:12:35.369Z,9.15
2022-10-09T00:13:38.548Z,11.27
2022-10-09T00:14:40.217Z,12.13
2022-10-09T00:15:46.344Z,16.55
2022-10-09T00:16:47.900Z,13.25
2022-10-09T00:17:50.860Z,13.38
2022-10-09T00:18:52.985Z,14.57
2022-10-09T00:19:55.492Z,14.77
2022-10-09T00:20:57.333Z,10.63
2022-10-09T00:21:59.822Z,18.85
2022-10-09T00:23:01.452Z,19.27
2022-10-09T00:24:05.689Z,13.15
2022-10-09T00:25:07.862Z,16.95
2022-10-09T00:26:12.002Z,11.20
2022-10-09T00:27:13.559Z,19.58
2022-10-09T00:28:16.187Z,15.30
2022-10-09T00:29:17.758Z,14.25
2022-10-09T00:30:20.372Z,20.88
2022-10-09T00:31:23.755Z,15.60
2022-10-09T00:32:26.284Z,9.63
2022-10-09T00:33:27.800Z,14.48
2022-10-09T00:34:30.687Z,20.20
2022-10-09T00:35:33.023Z,11.98
2022-10-09T00:36:35.552Z,11.70
2022-10-09T00:37:37.045Z,17.00
2022-10-09T00:38:39.658Z,14.32
2022-10-09T00:39:41.194Z,12.88
2022-10-09T00:40:44.047Z,14.38
2022-10-09T00:41:45.617Z,12.57
2022-10-09T00:42:48.921Z,15.75
2022-10-09T00:43:53.247Z,10.13
2022-10-09T00:44:59.868Z,8.60
2022-10-09T00:46:01.796Z,11.63
2022-10-09T00:47:05.735Z,12.70
2022-10-09T00:48:08.024Z,10.45
2022-10-09T00:49:23.319Z,9.45
2022-10-09T00:50:30.695Z,8.55
2022-10-09T00:51:35.134Z,14.02
2022-10-09T00:52:36.782Z,14.07
2022-10-09T00:53:39.563Z,20.67
2022-10-09T00:54:42.451Z,18.70
2022-10-09T01:00:52.780Z,13.32
2022-10-09T01:01:54.617Z,19.35
2022-10-09T01:02:58.515Z,14.07
2022-10-09T01:04:00.128Z,14.38
2022-10-09T01:05:02.771Z,14.10
2022-10-09T01:06:15.734Z,12.02
2022-10-09T01:07:32.535Z,9.55
2022-10-09T01:08:39.262Z,15.90
2022-10-09T01:09:47.829Z,16.38
2022-10-09T01:10:58.854Z,18.42
2022-10-09T01:12:07.660Z,13.70
2022-10-09T01:13:20.171Z,11.90
2022-10-09T01:14:27.057Z,14.05
2022-10-09T01:15:35.435Z,13.82
2022-10-09T01:16:42.347Z,11.05
2022-10-09T01:17:51.173Z,11.50
2022-10-09T01:19:02.293Z,13.05
2022-10-09T01:20:22.229Z,12.48
2022-10-09T01:21:30.478Z,14.75
2022-10-09T01:22:45.753Z,10.27
2022-10-09T01:24:00.163Z,12.45
2022-10-09T01:25:06.084Z,16.10
2022-10-09T01:26:40.516Z,11.82
2022-10-09T01:27:43.599Z,13.70
2022-10-09T01:28:50.004Z,15.05
2022-10-09T01:29:55.800Z,10.77
2022-10-09T01:31:01.135Z,11.80
2022-10-09T01:32:05.430Z,13.02
2022-10-09T01:33:08.388Z,11.73
2022-10-09T01:34:12.177Z,11.82
2022-10-09T01:35:16.157Z,20.88
2022-10-09T01:36:19.405Z,11.02
2022-10-09T01:37:23.367Z,13.75
2022-10-09T01:38:25.399Z,17.25
2022-10-09T01:39:29.678Z,13.25
2022-10-09T01:40:32.014Z,11.75
2022-10-09T01:41:34.918Z,13.60
2022-10-09T01:42:37.321Z,14.48
2022-10-09T01:43:41.478Z,13.95
2022-10-09T01:44:43.017Z,14.18
2022-10-09T01:51:07.561Z,9.07
2022-10-09T01:52:22.011Z,14.95
2022-10-09T01:53:25.344Z,14.32
2022-10-09T01:54:35.063Z,10.70
2022-10-09T01:55:42.561Z,13.07
2022-10-09T01:56:48.656Z,13.13
2022-10-09T01:57:56.551Z,13.25
2022-10-09T01:59:02.183Z,15.40
2022-10-09T02:00:09.280Z,13.40
2022-10-09T02:01:16.799Z,11.45
2022-10-09T02:02:20.365Z,10.23
2022-10-09T02:03:24.292Z,16.25
2022-10-09T02:04:29.132Z,9.68
2022-10-09T02:05:32.003Z,13.90
2022-10-09T02:06:36.351Z,13.57
2022-10-09T02:07:38.389Z,14.63
2022-10-09T02:08:42.741Z,21.50
2022-10-09T02:09:45.739Z,16.20
2022-10-09T02:10:52.356Z,15.65
2022-10-09T02:11:57.493Z,14.05
2022-10-09T02:13:01.225Z,12.90
2022-10-09T02:14:04.204Z,12.70
2022-10-09T02:15:09.483Z,16.30
2022-10-09T02:16:17.356Z,10.38
2022-10-09T02:17:26.759Z,12.02
2022-10-09T02:18:33.519Z,11.48
2022-10-09T02:19:40.714Z,23.45
2022-10-09T02:20:47.064Z,14.77
2022-10-09T02:21:56.303Z,11.52
2022-10-09T02:23:00.361Z,12.55
2022-10-09T02:24:05.015Z,15.40
2022-10-09T02:25:07.351Z,13.90
2022-10-09T02:26:11.306Z,19.85
2022-10-09T02:27:13.883Z,11.55
2022-10-09T02:28:16.419Z,14.85
2022-10-09T02:29:19.658Z,14.23
2022-10-09T02:30:22.704Z,11.85
2022-10-09T02:31:27.319Z,14.93
2022-10-09T02:32:30.324Z,12.02
2022-10-09T02:33:32.373Z,16.98
2022-10-09T02:34:35.032Z,13.57
2022-10-09T02:35:38.292Z,13.45
2022-10-09T02:36:41.037Z,11.93
2022-10-09T02:37:42.565Z,11.85
2022-10-09T02:38:45.067Z,11.88
2022-10-09T02:39:46.607Z,14.50
2022-10-09T02:40:49.056Z,12.73
2022-10-09T02:41:50.596Z,17.60
2022-10-09T02:42:53.075Z,10.23
2022-10-09T02:43:55.275Z,16.17
2022-10-09T02:44:59.231Z,10.50
2022-10-09T02:46:00.751Z,11.07
2022-10-09T02:47:03.416Z,11.45
2022-10-09T02:48:04.976Z,12.02
2022-10-09T02:49:07.960Z,9.68
2022-10-09T02:50:09.926Z,13.43
2022-10-09T02:51:12.416Z,9.65
2022-10-09T02:52:14.024Z,10.90
2022-10-09T02:53:16.697Z,8.98
2022-10-09T02:54:18.220Z,15.23
2022-10-09T02:55:20.747Z,10.43
2022-10-09T02:56:22.681Z,16.20
2022-10-09T02:57:25.201Z,8.50
2022-10-09T02:58:26.741Z,12.30
2022-10-09T02:59:29.206Z,10.63
2022-10-09T03:00:32.094Z,15.98
2022-10-09T03:01:34.904Z,12.35
2022-10-09T03:02:36.604Z,11.98
2022-10-09T03:03:39.187Z,15.68
2022-10-09T03:04:40.738Z,10.85
2022-10-09T03:05:43.289Z,13.65
2022-10-09T03:06:44.852Z,12.50
2022-10-09T03:07:51.419Z,8.52
2022-10-09T03:08:53.580Z,16.23
2022-10-09T03:09:57.142Z,13.82
2022-10-09T03:15:41.933Z,10.20
2022-10-09T03:16:45.634Z,11.85
2022-10-09T03:17:47.209Z,14.85
2022-10-09T03:18:50.658Z,11.30
2022-10-09T03:19:53.638Z,12.82
2022-10-09T03:20:56.196Z,11.20
2022-10-09T03:21:57.720Z,10.10
2022-10-09T03:23:00.179Z,12.63
2022-10-09T03:24:01.727Z,14.30
2022-10-09T03:25:04.432Z,17.30
2022-10-09T03:26:08.052Z,11.38
2022-10-09T03:27:10.496Z,15.82
2022-10-09T03:28:12.070Z,12.30
2022-10-09T03:29:14.600Z,9.95
2022-10-09T03:30:16.205Z,11.57
2022-10-09T03:31:49.980Z,9.98
2022-10-09T03:32:44.765Z,13.90
2022-10-09T03:33:47.266Z,12.82
2022-10-09T03:34:49.732Z,13.27
2022-10-09T03:35:51.277Z,17.65
2022-10-09T03:36:53.760Z,10.23
2022-10-09T03:37:55.275Z,9.75
2022-10-09T03:38:57.737Z,16.85
2022-10-09T03:39:59.325Z,12.18
2022-10-09T03:41:04.094Z,8.48
2022-10-09T03:42:06.150Z,13.10
2022-10-09T03:43:09.008Z,11.35
2022-10-09T03:44:10.542Z,12.27
2022-10-09T03:45:13.471Z,9.40
2022-10-09T03:46:15.075Z,14.98
2022-10-09T03:47:19.299Z,10.95
2022-10-09T03:48:20.927Z,13.30
2022-10-09T03:49:23.503Z,9.85
2022-10-09T03:50:25.168Z,10.48
2022-10-09T03:51:27.624Z,15.48
2022-10-09T03:52:29.127Z,9.38
2022-10-09T03:53:31.685Z,9.82
2022-10-09T03:54:33.289Z,11.73
2022-10-09T03:55:36.607Z,10.98
2022-10-09T03:56:38.109Z,13.02
2022-10-09T03:57:40.694Z,10.55
2022-10-09T03:58:42.194Z,12.05
2022-10-09T03:59:44.677Z,13.00
2022-10-09T04:00:46.561Z,7.97
2022-10-09T04:01:49.153Z,11.02
2022-10-09T04:02:52.624Z,10.25
2022-10-09T04:03:55.392Z,13.43
2022-10-09T04:04:56.912Z,11.02
2022-10-09T04:05:59.390Z,10.88
2022-10-09T04:07:00.927Z,12.60
2022-10-09T04:08:03.658Z,15.00
2022-10-09T04:09:05.330Z,11.90
2022-10-09T04:10:08.469Z,13.20
2022-10-09T04:11:09.971Z,13.30
2022-10-09T04:12:16.641Z,15.35
2022-10-09T04:13:18.135Z,13.40
2022-10-09T04:14:20.584Z,10.45
2022-10-09T04:15:23.103Z,12.45
2022-10-09T04:16:25.705Z,10.23
2022-10-09T04:17:27.338Z,10.63
2022-10-09T04:18:31.674Z,10.93
2022-10-09T04:19:33.264Z,11.80
2022-10-09T04:20:36.154Z,12.98
2022-10-09T04:21:37.730Z,8.68
2022-10-09T04:22:40.209Z,14.00
2022-10-09T04:23:42.162Z,10.95
2022-10-09T04:24:44.726Z,11.57
2022-10-09T04:25:46.825Z,11.95
2022-10-09T04:26:49.840Z,16.80
2022-10-09T04:27:51.389Z,9.35
2022-10-09T04:28:53.838Z,13.55
2022-10-09T04:29:55.409Z,10.10
2022-10-09T04:30:58.970Z,10.52
2022-10-09T04:32:00.661Z,13.88
2022-10-09T04:33:03.159Z,14.73
2022-10-09T04:34:06.329Z,8.07
2022-10-09T04:35:09.696Z,9.98
2022-10-09T04:36:11.206Z,14.15
2022-10-09T04:37:13.872Z,10.23
2022-10-09T04:38:15.418Z,13.90
2022-10-09T04:39:18.005Z,12.00
2022-10-09T04:40:19.577Z,10.18
2022-10-09T04:41:22.097Z,11.20
2022-10-09T04:42:23.632Z,11.60
2022-10-09T04:43:26.262Z,12.30
2022-10-09T04:44:27.813Z,10.65
2022-10-09T04:45:33.141Z,15.48
2022-10-09T04:46:36.334Z,11.25
2022-10-09T04:47:38.856Z,9.20
2022-10-09T04:48:41.737Z,11.85
2022-10-09T04:49:45.818Z,14.27
2022-10-09T04:50:47.341Z,11.00
2022-10-09T04:51:49.891Z,12.15
2022-10-09T04:52:51.703Z,15.13
2022-10-09T04:54:00.413Z,10.95
2022-10-09T04:55:02.317Z,10.65
2022-10-09T04:56:05.816Z,11.50
2022-10-09T04:57:07.369Z,13.75
2022-10-09T04:58:10.807Z,15.88
2022-10-09T04:59:13.549Z,10.80
2022-10-09T05:00:15.498Z,13.15
2022-10-09T05:01:25.890Z,13.63
2022-10-09T05:02:27.618Z,8.98
2022-10-09T05:03:30.140Z,13.38
2022-10-09T05:04:32.014Z,11.60
2022-10-09T05:05:35.834Z,10.38
2022-10-09T05:06:37.349Z,14.43
2022-10-09T05:07:39.839Z,11.38
2022-10-09T05:08:42.342Z,12.50
2022-10-09T05:09:44.831Z,13.35
2022-10-09T05:10:46.373Z,16.33
2022-10-09T05:11:49.155Z,12.45
2022-10-09T05:12:51.067Z,13.48
2022-10-09T05:13:56.587Z,16.38
2022-10-09T05:14:58.197Z,18.63
2022-10-09T05:16:02.989Z,15.02
2022-10-09T05:17:23.270Z,13.13
2022-10-09T05:18:26.378Z,9.10
2022-10-09T05:19:28.259Z,11.95
2022-10-09T05:20:30.755Z,11.38
2022-10-09T05:26:17.310Z,12.45
2022-10-09T05:27:18.839Z,8.68
2022-10-09T05:28:21.357Z,17.52
2022-10-09T05:29:23.874Z,11.88
2022-10-09T05:30:25.481Z,12.13
2022-10-09T05:31:29.496Z,15.23
2022-10-09T05:32:31.146Z,12.23
2022-10-09T05:33:34.105Z,12.82
2022-10-09T05:34:35.972Z,14.43
2022-10-09T05:35:38.753Z,9.40
2022-10-09T05:36:40.294Z,10.55
2022-10-09T05:37:45.467Z,11.80
2022-10-09T05:38:47.357Z,8.40
2022-10-09T05:39:49.880Z,11.82
2022-10-09T05:40:52.432Z,10.55
2022-10-09T05:41:56.514Z,8.75
2022-10-09T05:42:58.031Z,18.40
2022-10-09T05:44:02.935Z,12.35
2022-10-09T05:45:05.302Z,8.88
2022-10-09T05:46:09.593Z,9.50
2022-10-09T05:47:13.456Z,15.88
2022-10-09T05:48:16.107Z,10.63
2022-10-09T05:49:17.792Z,11.75
2022-10-09T05:50:20.276Z,10.25
2022-10-09T05:56:32.317Z,10.20
2022-10-09T05:57:35.297Z,11.98
2022-10-09T05:58:37.777Z,10.43
2022-10-09T05:59:40.311Z,10.13
2022-10-09T06:00:41.850Z,21.10
2022-10-09T06:01:46.582Z,9.93
2022-10-09T06:02:49.521Z,10.30
2022-10-09T06:03:52.458Z,10.23
2022-10-09T06:04:54.935Z,13.02
2022-10-09T06:05:59.893Z,17.38
2022-10-09T06:07:02.374Z,8.68
2022-10-09T06:08:03.988Z,10.75
2022-10-09T06:09:07.867Z,11.25
2022-10-09T06:10:11.060Z,7.18
2022-10-09T06:11:14.627Z,11.05
2022-10-09T06:12:17.106Z,7.45
2022-10-09T06:13:19.950Z,8.65
2022-10-09T06:14:24.240Z,12.10
2022-10-09T06:15:25.791Z,10.57
2022-10-09T06:16:30.278Z,12.75
2022-10-09T06:17:32.744Z,12.48
2022-10-09T06:18:35.418Z,8.80
2022-10-09T06:19:37.953Z,11.38
2022-10-09T06:20:39.693Z,11.93
2022-10-09T06:21:42.693Z,11.73
2022-10-09T06:22:44.225Z,10.98
2022-10-09T06:23:50.912Z,11.48
2022-10-09T06:24:52.432Z,14.27
2022-10-09T06:25:55.672Z,11.82
2022-10-09T06:26:57.901Z,13.40
2022-10-09T06:28:01.106Z,8.45
2022-10-09T06:29:03.999Z,8.88
2022-10-09T06:30:07.405Z,14.45
2022-10-09T06:31:11.614Z,11.25
2022-10-09T06:32:14.178Z,9.13
2022-10-09T06:33:16.333Z,9.68
2022-10-09T06:34:19.987Z,15.30
2022-10-09T06:35:21.637Z,8.38
2022-10-09T06:41:31.601Z,10.30
2022-10-09T06:42:33.124Z,9.23
2022-10-09T06:43:35.835Z,9.52
2022-10-09T06:44:38.719Z,15.57
2022-10-09T06:45:41.225Z,7.80
2022-10-09T06:46:44.196Z,8.60
2022-10-09T06:47:46.699Z,13.88
2022-10-09T06:48:48.252Z,8.73
2022-10-09T06:49:50.723Z,11.70
2022-10-09T06:50:52.224Z,12.20
2022-10-09T06:51:54.736Z,10.70
2022-10-09T06:52:56.828Z,9.73
2022-10-09T06:54:01.789Z,10.65
2022-10-09T06:55:04.040Z,12.60
2022-10-09T06:56:07.031Z,7.75
2022-10-09T06:57:08.575Z,9.43
2022-10-09T06:58:11.057Z,9.40
2022-10-09T06:59:12.639Z,7.35
2022-10-09T07:00:16.910Z,17.85
2022-10-09T07:01:24.808Z,13.45
2022-10-09T07:02:27.348Z,7.97
2022-10-09T07:03:28.874Z,9.80
2022-10-09T07:04:31.527Z,7.75
2022-10-09T07:05:33.047Z,7.90
2022-10-09T07:11:36.433Z,8.88
2022-10-09T07:12:38.655Z,9.65
2022-10-09T07:13:41.629Z,7.90
2022-10-09T07:14:43.285Z,11.63
2022-10-09T07:15:47.304Z,9.20
2022-10-09T07:16:48.973Z,12.98
2022-10-09T07:17:51.649Z,7.47
2022-10-09T07:18:53.678Z,6.70
2022-10-09T07:19:56.130Z,9.85
2022-10-09T07:21:00.481Z,7.00
2022-10-09T07:22:03.153Z,11.02
2022-10-09T07:23:04.741Z,10.63
2022-10-09T07:24:08.130Z,7.93
2022-10-09T07:25:11.763Z,6.63
2022-10-09T07:26:16.213Z,9.85
2022-10-09T07:27:18.208Z,11.43
2022-10-09T07:28:20.731Z,12.20
2022-10-09T07:29:22.247Z,10.85
2022-10-09T07:30:24.770Z,8.85
2022-10-09T07:31:27.856Z,9.43
2022-10-09T07:32:30.388Z,6.15
2022-10-09T07:33:32.321Z,8.27
2022-10-09T07:34:34.841Z,12.80
2022-10-09T07:35:36.386Z,5.32
2022-10-09T07:36:38.978Z,7.30
2022-10-09T07:37:41.907Z,6.57
2022-10-09T07:38:43.648Z,8.77
2022-10-09T07:39:46.511Z,7.15
2022-10-09T07:40:48.135Z,13.13
2022-10-09T07:41:52.397Z,7.90
2022-10-09T07:42:54.481Z,11.25
2022-10-09T07:43:57.820Z,8.25
2022-10-09T07:44:59.318Z,8.63
2022-10-09T07:46:03.485Z,11.95
2022-10-09T07:47:06.640Z,11.93
2022-10-09T07:48:09.131Z,8.85
2022-10-09T07:49:10.713Z,9.05
2022-10-09T07:50:13.204Z,10.25
2022-10-09T07:51:17.282Z,12.23
2022-10-09T07:52:19.774Z,6.40
2022-10-09T07:53:21.781Z,7.82
2022-10-09T07:54:24.390Z,9.93
2022-10-09T07:55:25.909Z,9.07
2022-10-09T07:56:29.961Z,18.52
2022-10-09T07:57:31.492Z,10.55
2022-10-09T07:58:34.836Z,11.52
2022-10-09T07:59:37.303Z,13.95
2022-10-09T08:00:38.852Z,7.95
2022-10-09T08:01:41.766Z,10.88
2022-10-09T08:02:44.862Z,11.68
2022-10-09T08:03:47.526Z,6.60
2022-10-09T08:04:50.071Z,5.78
2022-10-09T08:05:54.348Z,8.50
2022-10-09T08:06:58.258Z,13.45
2022-10-09T08:07:59.942Z,11.88
2022-10-09T08:09:03.844Z,10.70
2022-10-09T08:10:06.117Z,8.38
2022-10-09T08:11:10.871Z,9.15
2022-10-09T08:12:12.894Z,6.63
2022-10-09T08:13:15.380Z,10.70
2022-10-09T08:14:19.641Z,5.47
2022-10-09T08:15:21.429Z,9.68
2022-10-09T08:16:25.211Z,5.50
2022-10-09T08:17:26.762Z,8.20
2022-10-09T08:18:30.626Z,9.02
2022-10-09T08:19:32.202Z,5.07
2022-10-09T08:20:34.733Z,8.07
2022-10-09T08:21:36.261Z,5.85
2022-10-09T08:22:38.745Z,4.07
2022-10-09T08:23:40.800Z,8.15
2022-10-09T08:24:43.292Z,8.55
2022-10-09T08:25:45.843Z,7.75
2022-10-09T08:26:48.409Z,8.93
2022-10-09T08:27:52.190Z,5.43
2022-10-09T08:28:56.833Z,9.18
2022-10-09T08:29:59.533Z,5.10
2022-10-09T08:31:09.347Z,6.13
2022-10-09T08:32:11.915Z,4.45
2022-10-09T08:33:13.563Z,5.68
2022-10-09T08:34:17.427Z,5.20
2022-10-09T08:35:19.028Z,8.70
2022-10-09T08:36:22.442Z,5.75
2022-10-09T08:37:23.956Z,6.07
2022-10-09T08:38:46.180Z,9.50
2022-10-09T08:39:49.004Z,8.02
2022-10-09T08:40:58.441Z,8.00
2022-10-09T08:42:03.252Z,6.95
2022-10-09T08:43:07.022Z,6.57
2022-10-09T08:44:16.162Z,7.97
2022-10-09T08:45:19.204Z,8.40
2022-10-09T08:46:27.074Z,6.88
2022-10-09T08:47:39.009Z,10.20
2022-10-09T08:48:45.564Z,7.07
2022-10-09T08:49:55.801Z,6.15
2022-10-09T08:50:58.952Z,13.77
2022-10-09T08:52:20.359Z,8.20
2022-10-09T08:53:31.008Z,6.70
2022-10-09T08:54:36.569Z,9.35
2022-10-09T08:55:44.345Z,4.80
2022-10-09T08:56:47.546Z,7.28
2022-10-09T08:57:52.395Z,7.63
2022-10-09T08:58:53.983Z,6.47
2022-10-09T08:59:57.427Z,8.02
2022-10-09T09:01:05.333Z,7.93
2022-10-09T09:02:29.893Z,6.40
2022-10-09T09:03:55.293Z,8.70
2022-10-09T09:05:08.762Z,6.32
2022-10-09T09:11:21.378Z,3.65
2022-10-09T09:12:33.779Z,7.68
2022-10-09T09:13:50.612Z,5.22
2022-10-09T09:15:09.502Z,3.83
2022-10-09T09:16:21.180Z,6.57
2022-10-09T09:17:26.965Z,7.10
2022-10-09T09:18:42.537Z,5.85
2022-10-09T09:19:54.781Z,5.15
2022-10-09T09:21:06.186Z,6.63
2022-10-09T09:22:12.179Z,14.68
2022-10-09T09:23:16.681Z,5.68
2022-10-09T09:24:21.172Z,7.53
2022-10-09T09:25:25.360Z,8.88
2022-10-09T09:26:27.516Z,11.43
2022-10-09T09:27:34.178Z,5.47
2022-10-09T09:28:39.546Z,8.02
2022-10-09T09:29:46.563Z,6.85
2022-10-09T09:30:55.652Z,6.35
2022-10-09T09:32:02.058Z,13.52
2022-10-09T09:33:14.242Z,6.57
2022-10-09T09:34:23.722Z,5.30
2022-10-09T09:35:32.440Z,5.95
2022-10-09T09:36:42.116Z,7.35
2022-10-09T09:37:43.638Z,5.45
2022-10-09T09:39:22.604Z,5.78
2022-10-09T09:45:33.953Z,7.55
2022-10-09T09:46:38.447Z,9.95
2022-10-09T09:47:45.286Z,16.38
2022-10-09T09:48:49.237Z,9.02
2022-10-09T09:49:56.110Z,6.53
2022-10-09T09:51:16.277Z,9.07
2022-10-09T09:52:29.547Z,5.78
2022-10-09T09:53:33.858Z,5.60
2022-10-09T09:54:36.411Z,11.88
2022-10-09T09:55:38.116Z,9.10
2022-10-09T09:57:10.231Z,5.80
2022-10-09T09:58:08.279Z,10.88
2022-10-09T09:59:26.861Z,10.95
2022-10-09T10:00:29.726Z,5.38
2022-10-09T10:01:32.645Z,4.40
2022-10-09T10:02:35.902Z,9.20
2022-10-09T10:03:50.323Z,7.78
2022-10-09T10:04:53.953Z,8.57
2022-10-09T10:05:57.177Z,5.03
2022-10-09T10:07:05.929Z,6.25
2022-10-09T10:08:25.814Z,11.18
2022-10-09T10:09:28.346Z,7.72
2022-10-09T10:10:30.242Z,5.45
2022-10-09T10:11:35.603Z,8.73
2022-10-09T10:12:41.530Z,3.90
2022-10-09T10:13:49.572Z,6.57
2022-10-09T10:14:51.606Z,5.45
2022-10-09T10:20:50.691Z,6.40
2022-10-09T10:21:57.221Z,6.68
2022-10-09T10:23:01.288Z,7.32
2022-10-09T10:24:08.912Z,4.63
2022-10-09T10:25:18.385Z,6.07
2022-10-09T10:26:26.014Z,8.20
2022-10-09T10:27:35.372Z,10.57
2022-10-09T10:28:47.849Z,11.93
2022-10-09T10:29:52.104Z,5.88
2022-10-09T10:31:00.214Z,6.60
2022-10-09T10:32:11.457Z,6.03
2022-10-09T10:33:19.448Z,6.57
2022-10-09T10:34:26.576Z,6.75
2022-10-09T10:35:33.715Z,4.00
2022-10-09T10:36:36.563Z,6.15
2022-10-09T10:37:46.143Z,4.95
2022-10-09T10:38:55.324Z,6.35
2022-10-09T10:40:14.166Z,8.90
2022-10-09T10:41:29.257Z,6.13
2022-10-09T10:42:41.709Z,6.22
2022-10-09T10:43:51.664Z,5.80
2022-10-09T10:45:00.583Z,4.80
2022-10-09T10:46:11.869Z,7.22
2022-10-09T10:47:22.747Z,4.00
2022-10-09T10:48:28.605Z,5.75
2022-10-09T10:49:33.949Z,4.07
2022-10-09T10:50:43.032Z,3.53
2022-10-09T10:51:58.955Z,5.43
2022-10-09T10:53:23.097Z,5.00
2022-10-09T10:54:39.811Z,3.97
2022-10-09T10:55:52.726Z,13.15
2022-10-09T10:57:01.780Z,8.35
2022-10-09T10:59:37.670Z,4.35
2022-10-09T11:00:43.881Z,6.13
2022-10-09T11:02:11.831Z,5.97
2022-10-09T11:03:34.968Z,6.28
2022-10-09T11:04:48.168Z,6.03
2022-10-09T11:05:55.878Z,8.27
2022-10-09T11:07:05.918Z,6.00
2022-10-09T11:08:29.134Z,7.95
2022-10-09T11:09:40.434Z,8.50
2022-10-09T11:21:02.459Z,3.17
2022-10-09T11:22:16.044Z,6.82
2022-10-09T11:23:32.640Z,4.40
2022-10-09T11:24:58.591Z,4.35
2022-10-09T11:26:09.042Z,2.50
2022-10-09T11:27:17.335Z,5.13
2022-10-09T11:28:25.666Z,7.47
2022-10-09T11:29:36.178Z,4.07
2022-10-09T11:30:42.735Z,6.15
2022-10-09T11:31:49.101Z,7.15
2022-10-09T11:32:58.603Z,3.65
2022-10-09T11:34:07.114Z,9.90
2022-10-09T11:35:19.503Z,5.53
2022-10-09T11:36:28.461Z,4.82
2022-10-09T11:37:35.635Z,2.53
2022-10-09T11:38:43.408Z,6.78
2022-10-09T11:39:45.698Z,5.43
2022-10-09T11:40:49.166Z,5.93
2022-10-09T11:41:53.630Z,3.63
2022-10-09T11:43:00.392Z,7.15
2022-10-09T11:44:22.301Z,3.70
2022-10-09T11:45:30.713Z,3.08
2022-10-09T11:46:42.488Z,5.15
2022-10-09T11:47:54.547Z,7.15
2022-10-09T11:49:09.820Z,6.30
2022-10-09T11:50:35.755Z,3.78
2022-10-09T11:51:47.937Z,4.82
2022-10-09T11:52:58.465Z,4.20
2022-10-09T11:54:00.799Z,5.70
2022-10-09T11:55:17.888Z,3.92
2022-10-09T11:56:25.082Z,4.22
2022-10-09T11:57:28.410Z,4.55
2022-10-09T11:58:30.963Z,7.00
2022-10-09T11:59:36.057Z,2.63
2022-10-09T12:00:38.907Z,7.38
2022-10-09T12:01:42.841Z,4.60
2022-10-09T12:02:45.528Z,6.20
2022-10-09T12:03:47.478Z,4.60
2022-10-09T12:04:54.883Z,7.00
2022-10-09T12:06:07.442Z,3.35
2022-10-09T12:07:13.062Z,2.42
2022-10-09T12:08:19.537Z,2.78
2022-10-09T12:09:26.563Z,2.95
2022-10-09T12:10:33.411Z,4.63
2022-10-09T12:11:35.329Z,4.25
2022-10-09T12:12:38.759Z,3.45
2022-10-09T12:13:47.422Z,6.00
2022-10-09T12:14:51.632Z,7.45
2022-10-09T12:15:57.076Z,4.55
2022-10-09T12:17:00.311Z,5.55
2022-10-09T12:18:14.028Z,6.13
2022-10-09T12:19:19.722Z,4.80
2022-10-09T12:20:25.183Z,5.75
2022-10-09T12:21:32.523Z,3.30
2022-10-09T12:22:41.405Z,7.38
2022-10-09T12:23:46.668Z,3.85
2022-10-09T12:24:52.466Z,5.68
2022-10-09T12:25:55.336Z,4.40
2022-10-09T12:27:02.993Z,6.43
2022-10-09T12:28:06.655Z,2.15
2022-10-09T12:29:20.823Z,2.33
2022-10-09T12:30:30.083Z,10.75
2022-10-09T12:31:35.391Z,2.88
2022-10-09T12:32:40.535Z,3.45
2022-10-09T12:33:46.632Z,5.10
2022-10-09T12:34:51.725Z,6.03
2022-10-09T12:36:05.102Z,5.70
2022-10-09T12:37:12.763Z,3.75
2022-10-09T12:38:25.377Z,3.30
2022-10-09T12:39:27.859Z,3.95
2022-10-09T12:40:32.373Z,2.05
2022-10-09T12:41:36.061Z,4.70
2022-10-09T12:42:38.593Z,8.95
2022-10-09T12:43:48.687Z,2.92
2022-10-09T12:44:53.828Z,3.88
2022-10-09T12:45:55.782Z,5.57
2022-10-09T12:47:02.696Z,4.25
2022-10-09T12:48:11.046Z,2.92
2022-10-09T12:49:20.334Z,1.90
2022-10-09T12:50:27.122Z,2.10
2022-10-09T12:51:32.108Z,5.47
2022-10-09T12:52:34.750Z,9.68
2022-10-09T12:53:46.782Z,2.10
2022-10-09T12:54:49.314Z,3.40
2022-10-09T12:55:53.187Z,5.25
2022-10-09T12:56:57.410Z,4.30
2022-10-09T12:58:03.360Z,2.80
2022-10-09T12:59:06.931Z,7.60
2022-10-09T13:00:15.319Z,3.20
2022-10-09T13:01:18.325Z,3.58
2022-10-09T13:02:22.083Z,4.00
2022-10-09T13:03:26.095Z,3.65
2022-10-09T13:04:31.603Z,3.60
2022-10-09T13:05:37.991Z,5.50
2022-10-09T13:06:45.589Z,2.38
2022-10-09T13:07:52.539Z,5.97
2022-10-09T13:08:59.574Z,3.20
2022-10-09T13:10:05.615Z,3.53
2022-10-09T13:11:12.956Z,4.25
2022-10-09T13:12:20.199Z,6.03
2022-10-09T13:13:27.660Z,4.85
2022-10-09T13:14:35.726Z,2.03
2022-10-09T13:15:38.274Z,3.70
2022-10-09T13:16:43.793Z,2.67
2022-10-09T13:17:46.680Z,5.85
2022-10-09T13:18:56.147Z,4.07
2022-10-09T13:20:00.433Z,3.33
2022-10-09T13:21:04.230Z,3.92
2022-10-09T13:22:20.233Z,4.05
2022-10-09T13:23:29.047Z,5.82
2022-10-09T13:24:32.917Z,4.82
2022-10-09T13:25:39.851Z,2.58
2022-10-09T13:26:43.765Z,2.75
2022-10-09T13:27:46.405Z,7.55
2022-10-09T13:28:48.215Z,3.65
2022-10-09T13:29:50.901Z,2.65
2022-10-09T13:30:53.491Z,2.92
2022-10-09T13:31:55.097Z,2.95
2022-10-09T13:32:58.057Z,6.43
2022-10-09T13:34:00.691Z,4.55
2022-10-09T13:35:03.174Z,5.13
2022-10-09T13:36:05.104Z,4.30
2022-10-09T13:37:07.685Z,5.93
2022-10-09T13:38:13.422Z,3.70
2022-10-09T13:39:16.036Z,4.30
2022-10-09T13:40:21.825Z,3.03
2022-10-09T13:41:24.795Z,3.05
2022-10-09T13:42:30.988Z,4.47
2022-10-09T13:43:33.126Z,2.72
2022-10-09T13:44:35.977Z,5.35
2022-10-09T13:45:37.597Z,2.50
2022-10-09T13:46:40.251Z,3.87
2022-10-09T13:47:41.894Z,4.40
2022-10-09T13:48:45.775Z,2.63
2022-10-09T13:49:47.505Z,2.95
2022-10-09T13:50:50.076Z,3.00
2022-10-09T13:51:51.574Z,3.80
2022-10-09T13:52:54.141Z,3.58
2022-10-09T13:53:55.725Z,6.13
2022-10-09T13:54:58.223Z,3.10
2022-10-09T13:56:01.417Z,3.45
2022-10-09T13:57:04.355Z,2.17
2022-10-09T13:58:06.106Z,2.85
2022-10-09T13:59:08.639Z,3.95
2022-10-09T14:00:11.448Z,3.88
2022-10-09T14:01:15.107Z,2.75
2022-10-09T14:02:16.710Z,1.55
2022-10-09T14:03:19.301Z,3.00
2022-10-09T14:04:21.292Z,3.47
2022-10-09T14:05:26.430Z,6.50
2022-10-09T14:06:28.035Z,2.08
2022-10-09T14:07:30.880Z,1.98
2022-10-09T14:08:32.419Z,4.65
2022-10-09T14:09:35.020Z,4.70
2022-10-09T14:10:41.824Z,2.75
2022-10-09T14:11:45.639Z,2.47
2022-10-09T14:12:47.388Z,5.07
2022-10-09T14:13:50.912Z,2.72
2022-10-09T14:14:54.127Z,6.03
2022-10-09T14:20:57.481Z,2.97
2022-10-09T14:21:59.019Z,1.55
2022-10-09T14:23:01.680Z,7.55
2022-10-09T14:24:03.624Z,3.00
2022-10-09T14:25:07.636Z,2.97
2022-10-09T14:26:09.779Z,3.53
2022-10-09T14:27:13.662Z,1.20
2022-10-09T14:28:15.285Z,1.52
2022-10-09T14:29:17.940Z,3.92
2022-10-09T14:30:19.494Z,7.23
2022-10-09T14:31:22.287Z,2.03
2022-10-09T14:32:24.774Z,2.15
2022-10-09T14:33:26.376Z,2.13
2022-10-09T14:34:28.913Z,2.38
2022-10-09T14:35:30.511Z,1.52
2022-10-09T14:36:33.195Z,1.52
2022-10-09T14:37:41.467Z,2.70
2022-10-09T14:38:44.583Z,1.95
2022-10-09T14:39:46.696Z,3.35
2022-10-09T14:45:44.769Z,3.00
2022-10-09T14:46:46.292Z,2.20
2022-10-09T14:47:49.113Z,3.08
2022-10-09T14:48:51.355Z,1.97
2022-10-09T14:49:54.008Z,2.30
2022-10-09T14:50:55.660Z,3.65
2022-10-09T14:51:58.125Z,3.83
2022-10-09T14:52:59.649Z,1.67
2022-10-09T14:54:02.489Z,2.58
2022-10-09T14:55:04.781Z,3.30
2022-10-09T14:56:11.001Z,1.60
2022-10-09T14:57:12.749Z,1.65
2022-10-09T14:58:15.234Z,2.50
2022-10-09T14:59:18.035Z,1.80
2022-10-09T15:00:20.781Z,1.77
2022-10-09T15:01:25.621Z,1.85
2022-10-09T15:02:27.113Z,4.30
2022-10-09T15:03:30.899Z,1.80
2022-10-09T15:04:33.615Z,9.00
2022-10-09T15:05:35.217Z,2.25
2022-10-09T15:06:37.773Z,1.90
2022-10-09T15:07:39.345Z,6.38
2022-10-09T15:08:43.245Z,2.35
2022-10-09T15:09:44.811Z,2.58
2022-10-09T15:10:47.274Z,2.13
2022-10-09T15:11:48.812Z,3.45
2022-10-09T15:12:51.274Z,1.80
2022-10-09T15:13:53.113Z,3.58
2022-10-09T15:14:55.588Z,1.85
2022-10-09T15:16:00.926Z,3.28
2022-10-09T15:17:05.059Z,3.22
2022-10-09T15:18:10.349Z,6.07
2022-10-09T15:19:14.483Z,5.50
2022-10-09T15:20:16.787Z,4.55
2022-10-09T15:21:22.461Z,2.93
2022-10-09T15:22:24.032Z,2.50